sensor_id;sensor_type;location;lat;lon;timestamp;temperature;humidity
18103;DHT22;9178;51.120;6.192;2023-06-10T00:00:32;19.80;99.90
18103;DHT22;9178;51.120;6.192;2023-06-10T00:03:05;19.70;99.90
18103;DHT22;9178;51.120;6.192;2023-06-10T00:05:33;19.70;99.90
18103;DHT22;9178;51.120;6.192;2023-06-10T00:08:02;19.70;99.90
18103;DHT22;9178;51.120;6.192;2023-06-10T00:10:32;19.60;99.90
18103;DHT22;9178;51.120;6.192;2023-06-10T00:13:03;19.60;99.90
18103;DHT22;9178;51.120;6.192;2023-06-10T00:15:30;19.50;99.90
18103;DHT22;9178;51.120;6.192;2023-06-10T00:18:00;19.50;99.90
18103;DHT22;9178;51.120;6.192;2023-06-10T00:20:31;19.50;99.90
18103;DHT22;9178;51.120;6.192;2023-06-10T00:22:59;19.40;99.90
18103;DHT22;9178;51.120;6.192;2023-06-10T00:25:27;19.40;99.90
18103;DHT22;9178;51.120;6.192;2023-06-10T00:27:55;19.40;99.90
18103;DHT22;9178;51.120;6.192;2023-06-10T00:30:24;19.30;99.90
18103;DHT22;9178;51.120;6.192;2023-06-10T00:32:52;19.30;99.90
18103;DHT22;9178;51.120;6.192;2023-06-10T00:35:19;19.20;99.90
18103;DHT22;9178;51.120;6.192;2023-06-10T00:37:48;19.20;99.90
18103;DHT22;9178;51.120;6.192;2023-06-10T00:40:15;19.10;99.90
18103;DHT22;9178;51.120;6.192;2023-06-10T00:42:43;19.10;99.90
18103;DHT22;9178;51.120;6.192;2023-06-10T00:45:15;19.00;99.90
18103;DHT22;9178;51.120;6.192;2023-06-10T00:47:44;18.90;99.90
18103;DHT22;9178;51.120;6.192;2023-06-10T00:50:14;18.90;99.90
18103;DHT22;9178;51.120;6.192;2023-06-10T00:52:42;18.90;99.90
18103;DHT22;9178;51.120;6.192;2023-06-10T00:55:12;18.80;99.90
18103;DHT22;9178;51.120;6.192;2023-06-10T00:57:39;18.80;99.90
18103;DHT22;9178;51.120;6.192;2023-06-10T01:00:09;18.80;99.90
18103;DHT22;9178;51.120;6.192;2023-06-10T01:02:36;18.70;99.90
18103;DHT22;9178;51.120;6.192;2023-06-10T01:05:06;18.60;99.90
18103;DHT22;9178;51.120;6.192;2023-06-10T01:07:38;18.60;99.90
18103;DHT22;9178;51.120;6.192;2023-06-10T01:10:12;18.50;99.90
18103;DHT22;9178;51.120;6.192;2023-06-10T01:12:46;18.50;99.90
18103;DHT22;9178;51.120;6.192;2023-06-10T01:15:21;18.40;99.90
18103;DHT22;9178;51.120;6.192;2023-06-10T01:17:56;18.30;99.90
18103;DHT22;9178;51.120;6.192;2023-06-10T01:20:29;18.20;99.90
18103;DHT22;9178;51.120;6.192;2023-06-10T01:22:59;18.20;99.90
18103;DHT22;9178;51.120;6.192;2023-06-10T01:25:30;18.10;99.90
18103;DHT22;9178;51.120;6.192;2023-06-10T01:28:03;18.10;99.90
18103;DHT22;9178;51.120;6.192;2023-06-10T01:30:38;18.00;99.90
18103;DHT22;9178;51.120;6.192;2023-06-10T01:33:09;17.90;99.90
18103;DHT22;9178;51.120;6.192;2023-06-10T01:35:38;17.90;99.90
18103;DHT22;9178;51.120;6.192;2023-06-10T01:38:07;17.90;99.90
18103;DHT22;9178;51.120;6.192;2023-06-10T01:40:35;17.80;99.90
18103;DHT22;9178;51.120;6.192;2023-06-10T01:43:03;17.80;99.90
18103;DHT22;9178;51.120;6.192;2023-06-10T01:45:31;17.70;99.90
18103;DHT22;9178;51.120;6.192;2023-06-10T01:47:58;17.70;99.90
18103;DHT22;9178;51.120;6.192;2023-06-10T01:50:28;17.60;99.90
18103;DHT22;9178;51.120;6.192;2023-06-10T01:52:57;17.60;99.90
18103;DHT22;9178;51.120;6.192;2023-06-10T01:55:25;17.60;99.90
18103;DHT22;9178;51.120;6.192;2023-06-10T01:57:52;17.50;99.90
18103;DHT22;9178;51.120;6.192;2023-06-10T02:00:19;17.50;99.90
18103;DHT22;9178;51.120;6.192;2023-06-10T02:02:46;17.50;99.90
18103;DHT22;9178;51.120;6.192;2023-06-10T02:05:13;17.40;99.90
18103;DHT22;9178;51.120;6.192;2023-06-10T02:07:40;17.40;99.90
18103;DHT22;9178;51.120;6.192;2023-06-10T02:10:11;17.30;99.90
18103;DHT22;9178;51.120;6.192;2023-06-10T02:12:40;17.30;99.90
18103;DHT22;9178;51.120;6.192;2023-06-10T02:15:12;17.30;99.90
18103;DHT22;9178;51.120;6.192;2023-06-10T02:17:39;17.20;99.90
18103;DHT22;9178;51.120;6.192;2023-06-10T02:30:16;17.00;99.90
18103;DHT22;9178;51.120;6.192;2023-06-10T02:32:44;17.00;99.90
18103;DHT22;9178;51.120;6.192;2023-06-10T02:35:16;17.00;99.90
18103;DHT22;9178;51.120;6.192;2023-06-10T02:37:44;16.90;99.90
18103;DHT22;9178;51.120;6.192;2023-06-10T02:40:12;16.90;99.90
18103;DHT22;9178;51.120;6.192;2023-06-10T02:42:39;16.90;99.90
18103;DHT22;9178;51.120;6.192;2023-06-10T02:45:09;16.90;99.90
18103;DHT22;9178;51.120;6.192;2023-06-10T02:47:38;16.80;99.90
18103;DHT22;9178;51.120;6.192;2023-06-10T02:50:07;16.80;99.90
18103;DHT22;9178;51.120;6.192;2023-06-10T02:52:34;16.70;99.90
18103;DHT22;9178;51.120;6.192;2023-06-10T02:55:01;16.70;99.90
18103;DHT22;9178;51.120;6.192;2023-06-10T02:57:32;16.70;99.90
18103;DHT22;9178;51.120;6.192;2023-06-10T03:00:00;16.70;99.90
18103;DHT22;9178;51.120;6.192;2023-06-10T03:02:38;16.60;99.90
18103;DHT22;9178;51.120;6.192;2023-06-10T03:05:07;16.60;99.90
18103;DHT22;9178;51.120;6.192;2023-06-10T03:07:36;16.60;99.90
18103;DHT22;9178;51.120;6.192;2023-06-10T03:10:06;16.60;99.90
18103;DHT22;9178;51.120;6.192;2023-06-10T03:12:37;16.60;99.90
18103;DHT22;9178;51.120;6.192;2023-06-10T03:15:06;16.60;99.90
18103;DHT22;9178;51.120;6.192;2023-06-10T03:17:38;16.50;99.90
18103;DHT22;9178;51.120;6.192;2023-06-10T03:20:06;16.50;99.90
18103;DHT22;9178;51.120;6.192;2023-06-10T03:22:45;16.50;99.90
18103;DHT22;9178;51.120;6.192;2023-06-10T03:25:17;16.50;99.90
18103;DHT22;9178;51.120;6.192;2023-06-10T03:27:46;16.40;99.90
18103;DHT22;9178;51.120;6.192;2023-06-10T03:30:21;16.40;99.90
18103;DHT22;9178;51.120;6.192;2023-06-10T03:32:51;16.40;99.90
18103;DHT22;9178;51.120;6.192;2023-06-10T03:35:18;16.40;99.90
18103;DHT22;9178;51.120;6.192;2023-06-10T03:37:46;16.40;99.90
18103;DHT22;9178;51.120;6.192;2023-06-10T03:40:13;16.40;99.90
18103;DHT22;9178;51.120;6.192;2023-06-10T03:42:40;16.40;99.90
18103;DHT22;9178;51.120;6.192;2023-06-10T03:45:10;16.40;99.90
18103;DHT22;9178;51.120;6.192;2023-06-10T03:47:38;16.40;99.90
18103;DHT22;9178;51.120;6.192;2023-06-10T03:50:08;16.40;99.90
18103;DHT22;9178;51.120;6.192;2023-06-10T03:52:37;16.40;99.90
18103;DHT22;9178;51.120;6.192;2023-06-10T03:55:07;16.40;99.90
18103;DHT22;9178;51.120;6.192;2023-06-10T03:57:34;16.40;99.90
18103;DHT22;9178;51.120;6.192;2023-06-10T04:00:02;16.50;99.90
18103;DHT22;9178;51.120;6.192;2023-06-10T04:02:36;16.50;99.90
18103;DHT22;9178;51.120;6.192;2023-06-10T04:05:03;16.50;99.90
18103;DHT22;9178;51.120;6.192;2023-06-10T04:07:38;16.60;99.90
18103;DHT22;9178;51.120;6.192;2023-06-10T04:10:07;16.60;99.90
18103;DHT22;9178;51.120;6.192;2023-06-10T04:12:34;16.60;99.90
18103;DHT22;9178;51.120;6.192;2023-06-10T04:15:02;16.60;99.90
18103;DHT22;9178;51.120;6.192;2023-06-10T04:17:29;16.70;99.90
18103;DHT22;9178;51.120;6.192;2023-06-10T04:19:57;16.70;99.90
18103;DHT22;9178;51.120;6.192;2023-06-10T04:22:24;16.70;99.90
18103;DHT22;9178;51.120;6.192;2023-06-10T04:24:54;16.70;99.90
18103;DHT22;9178;51.120;6.192;2023-06-10T04:27:23;16.80;99.90
18103;DHT22;9178;51.120;6.192;2023-06-10T04:29:53;16.80;99.90
18103;DHT22;9178;51.120;6.192;2023-06-10T04:32:20;16.80;99.90
18103;DHT22;9178;51.120;6.192;2023-06-10T04:34:48;16.90;99.90
18103;DHT22;9178;51.120;6.192;2023-06-10T04:37:18;17.00;99.90
18103;DHT22;9178;51.120;6.192;2023-06-10T04:39:45;17.00;99.90
18103;DHT22;9178;51.120;6.192;2023-06-10T04:42:16;17.10;99.90
18103;DHT22;9178;51.120;6.192;2023-06-10T04:44:43;17.10;99.90
18103;DHT22;9178;51.120;6.192;2023-06-10T04:47:14;17.20;99.90
18103;DHT22;9178;51.120;6.192;2023-06-10T04:49:42;17.20;99.90
18103;DHT22;9178;51.120;6.192;2023-06-10T04:52:10;17.30;99.90
18103;DHT22;9178;51.120;6.192;2023-06-10T04:54:37;17.40;99.90
18103;DHT22;9178;51.120;6.192;2023-06-10T04:57:06;17.40;99.90
18103;DHT22;9178;51.120;6.192;2023-06-10T04:59:35;17.50;99.90
18103;DHT22;9178;51.120;6.192;2023-06-10T05:02:06;17.60;99.90
18103;DHT22;9178;51.120;6.192;2023-06-10T05:04:59;17.70;99.90
18103;DHT22;9178;51.120;6.192;2023-06-10T05:07:33;17.70;99.90
18103;DHT22;9178;51.120;6.192;2023-06-10T05:10:06;17.80;99.90
18103;DHT22;9178;51.120;6.192;2023-06-10T05:12:37;17.90;99.90
18103;DHT22;9178;51.120;6.192;2023-06-10T05:15:24;17.90;99.90
18103;DHT22;9178;51.120;6.192;2023-06-10T05:17:58;18.00;99.90
18103;DHT22;9178;51.120;6.192;2023-06-10T05:20:28;18.10;99.90
18103;DHT22;9178;51.120;6.192;2023-06-10T05:22:56;18.20;99.90
18103;DHT22;9178;51.120;6.192;2023-06-10T05:25:30;18.30;99.90
18103;DHT22;9178;51.120;6.192;2023-06-10T05:28:03;18.30;99.90
18103;DHT22;9178;51.120;6.192;2023-06-10T05:30:34;18.40;99.90
18103;DHT22;9178;51.120;6.192;2023-06-10T05:33:11;18.50;99.90
18103;DHT22;9178;51.120;6.192;2023-06-10T05:35:41;18.60;99.90
18103;DHT22;9178;51.120;6.192;2023-06-10T05:38:09;18.60;99.90
18103;DHT22;9178;51.120;6.192;2023-06-10T05:40:36;18.70;99.90
18103;DHT22;9178;51.120;6.192;2023-06-10T05:43:05;18.80;99.90
18103;DHT22;9178;51.120;6.192;2023-06-10T05:45:34;18.90;99.90
18103;DHT22;9178;51.120;6.192;2023-06-10T05:48:04;18.90;99.90
18103;DHT22;9178;51.120;6.192;2023-06-10T05:50:31;19.00;99.90
18103;DHT22;9178;51.120;6.192;2023-06-10T05:53:24;19.00;99.90
18103;DHT22;9178;51.120;6.192;2023-06-10T05:55:52;19.10;99.90
18103;DHT22;9178;51.120;6.192;2023-06-10T05:58:25;19.30;99.90
18103;DHT22;9178;51.120;6.192;2023-06-10T06:00:54;19.30;99.90
18103;DHT22;9178;51.120;6.192;2023-06-10T06:03:21;19.40;99.90
18103;DHT22;9178;51.120;6.192;2023-06-10T06:05:48;19.50;99.90
18103;DHT22;9178;51.120;6.192;2023-06-10T06:08:19;19.60;99.90
18103;DHT22;9178;51.120;6.192;2023-06-10T06:10:46;19.70;99.90
18103;DHT22;9178;51.120;6.192;2023-06-10T06:13:13;19.80;99.90
18103;DHT22;9178;51.120;6.192;2023-06-10T06:15:47;19.80;99.90
18103;DHT22;9178;51.120;6.192;2023-06-10T06:18:16;19.90;99.90
18103;DHT22;9178;51.120;6.192;2023-06-10T06:20:46;20.00;99.90
18103;DHT22;9178;51.120;6.192;2023-06-10T06:23:14;20.10;99.90
18103;DHT22;9178;51.120;6.192;2023-06-10T06:25:47;20.20;99.90
18103;DHT22;9178;51.120;6.192;2023-06-10T06:28:21;20.30;99.90
18103;DHT22;9178;51.120;6.192;2023-06-10T06:30:54;20.40;99.90
18103;DHT22;9178;51.120;6.192;2023-06-10T06:33:23;20.50;99.90
18103;DHT22;9178;51.120;6.192;2023-06-10T06:35:51;20.60;99.90
18103;DHT22;9178;51.120;6.192;2023-06-10T06:38:21;20.70;99.90
18103;DHT22;9178;51.120;6.192;2023-06-10T06:40:50;20.80;99.90
18103;DHT22;9178;51.120;6.192;2023-06-10T06:43:21;20.80;99.90
18103;DHT22;9178;51.120;6.192;2023-06-10T06:45:48;20.90;99.90
18103;DHT22;9178;51.120;6.192;2023-06-10T06:48:15;21.00;99.90
18103;DHT22;9178;51.120;6.192;2023-06-10T06:50:47;21.00;99.90
18103;DHT22;9178;51.120;6.192;2023-06-10T06:53:16;21.10;99.90
18103;DHT22;9178;51.120;6.192;2023-06-10T06:55:45;21.20;99.90
18103;DHT22;9178;51.120;6.192;2023-06-10T06:58:12;21.30;99.90
18103;DHT22;9178;51.120;6.192;2023-06-10T07:00:39;21.40;99.90
18103;DHT22;9178;51.120;6.192;2023-06-10T07:03:08;21.50;99.90
18103;DHT22;9178;51.120;6.192;2023-06-10T07:05:36;21.70;99.90
18103;DHT22;9178;51.120;6.192;2023-06-10T07:08:14;21.80;99.90
18103;DHT22;9178;51.120;6.192;2023-06-10T07:10:42;22.10;99.90
18103;DHT22;9178;51.120;6.192;2023-06-10T07:13:09;22.30;99.90
18103;DHT22;9178;51.120;6.192;2023-06-10T07:15:44;22.60;99.90
18103;DHT22;9178;51.120;6.192;2023-06-10T07:18:11;22.80;99.90
18103;DHT22;9178;51.120;6.192;2023-06-10T07:20:39;23.00;99.90
18103;DHT22;9178;51.120;6.192;2023-06-10T07:23:09;23.10;99.90
18103;DHT22;9178;51.120;6.192;2023-06-10T07:25:40;23.30;99.90
18103;DHT22;9178;51.120;6.192;2023-06-10T07:28:22;23.60;99.90
18103;DHT22;9178;51.120;6.192;2023-06-10T07:31:05;23.90;99.90
18103;DHT22;9178;51.120;6.192;2023-06-10T07:33:32;24.00;99.90
18103;DHT22;9178;51.120;6.192;2023-06-10T07:36:00;24.20;99.90
18103;DHT22;9178;51.120;6.192;2023-06-10T07:38:32;24.40;99.90
18103;DHT22;9178;51.120;6.192;2023-06-10T07:40:59;24.70;99.90
18103;DHT22;9178;51.120;6.192;2023-06-10T07:43:37;25.00;99.90
18103;DHT22;9178;51.120;6.192;2023-06-10T07:46:04;25.30;99.90
18103;DHT22;9178;51.120;6.192;2023-06-10T07:48:54;25.50;99.90
18103;DHT22;9178;51.120;6.192;2023-06-10T07:51:21;25.60;99.90
18103;DHT22;9178;51.120;6.192;2023-06-10T07:53:59;25.60;99.90
18103;DHT22;9178;51.120;6.192;2023-06-10T07:56:29;25.70;99.60
18103;DHT22;9178;51.120;6.192;2023-06-10T07:59:03;25.70;99.90
18103;DHT22;9178;51.120;6.192;2023-06-10T08:01:31;26.00;99.90
18103;DHT22;9178;51.120;6.192;2023-06-10T08:03:58;26.10;97.80
18103;DHT22;9178;51.120;6.192;2023-06-10T08:06:32;26.40;99.90
18103;DHT22;9178;51.120;6.192;2023-06-10T08:09:02;26.70;99.90
18103;DHT22;9178;51.120;6.192;2023-06-10T08:11:30;27.00;99.10
18103;DHT22;9178;51.120;6.192;2023-06-10T08:13:58;27.10;96.70
18103;DHT22;9178;51.120;6.192;2023-06-10T08:16:32;27.20;98.70
18103;DHT22;9178;51.120;6.192;2023-06-10T08:19:05;27.30;95.20
18103;DHT22;9178;51.120;6.192;2023-06-10T08:21:32;27.30;96.30
18103;DHT22;9178;51.120;6.192;2023-06-10T08:24:01;27.50;97.80
18103;DHT22;9178;51.120;6.192;2023-06-10T08:26:28;27.90;95.50
18103;DHT22;9178;51.120;6.192;2023-06-10T08:28:55;28.10;96.60
18103;DHT22;9178;51.120;6.192;2023-06-10T08:31:28;28.30;96.50
18103;DHT22;9178;51.120;6.192;2023-06-10T08:33:56;28.60;96.60
18103;DHT22;9178;51.120;6.192;2023-06-10T08:36:23;28.80;92.60
18103;DHT22;9178;51.120;6.192;2023-06-10T08:38:55;28.90;92.80
18103;DHT22;9178;51.120;6.192;2023-06-10T08:41:25;29.00;91.60
18103;DHT22;9178;51.120;6.192;2023-06-10T08:44:12;29.20;91.60
18103;DHT22;9178;51.120;6.192;2023-06-10T08:46:47;29.40;91.10
18103;DHT22;9178;51.120;6.192;2023-06-10T08:49:18;29.50;92.20
18103;DHT22;9178;51.120;6.192;2023-06-10T08:51:54;29.50;90.40
18103;DHT22;9178;51.120;6.192;2023-06-10T08:54:22;29.70;90.80
18103;DHT22;9178;51.120;6.192;2023-06-10T08:56:55;30.00;91.80
18103;DHT22;9178;51.120;6.192;2023-06-10T08:59:24;30.20;88.70
18103;DHT22;9178;51.120;6.192;2023-06-10T09:01:52;30.10;89.30
18103;DHT22;9178;51.120;6.192;2023-06-10T09:04:20;30.10;88.40
18103;DHT22;9178;51.120;6.192;2023-06-10T09:06:56;30.20;84.30
18103;DHT22;9178;51.120;6.192;2023-06-10T09:09:28;30.30;87.90
18103;DHT22;9178;51.120;6.192;2023-06-10T09:11:57;30.50;89.30
18103;DHT22;9178;51.120;6.192;2023-06-10T09:14:26;30.90;87.60
18103;DHT22;9178;51.120;6.192;2023-06-10T09:16:53;31.00;85.50
18103;DHT22;9178;51.120;6.192;2023-06-10T09:19:23;31.30;84.60
18103;DHT22;9178;51.120;6.192;2023-06-10T09:21:52;31.70;81.60
18103;DHT22;9178;51.120;6.192;2023-06-10T09:24:26;31.80;78.20
18103;DHT22;9178;51.120;6.192;2023-06-10T09:27:09;31.90;76.90
18103;DHT22;9178;51.120;6.192;2023-06-10T09:29:45;31.70;78.80
18103;DHT22;9178;51.120;6.192;2023-06-10T09:32:14;32.10;80.60
18103;DHT22;9178;51.120;6.192;2023-06-10T09:34:43;32.50;78.60
18103;DHT22;9178;51.120;6.192;2023-06-10T09:37:20;32.70;76.00
18103;DHT22;9178;51.120;6.192;2023-06-10T09:40:06;32.90;75.00
18103;DHT22;9178;51.120;6.192;2023-06-10T09:42:38;33.20;74.40
18103;DHT22;9178;51.120;6.192;2023-06-10T09:45:09;33.10;74.20
18103;DHT22;9178;51.120;6.192;2023-06-10T09:47:46;33.40;70.20
18103;DHT22;9178;51.120;6.192;2023-06-10T09:50:13;33.60;71.10
18103;DHT22;9178;51.120;6.192;2023-06-10T09:52:41;33.80;70.80
18103;DHT22;9178;51.120;6.192;2023-06-10T09:55:18;34.00;69.70
18103;DHT22;9178;51.120;6.192;2023-06-10T09:57:49;34.30;66.20
18103;DHT22;9178;51.120;6.192;2023-06-10T10:00:17;34.40;66.20
18103;DHT22;9178;51.120;6.192;2023-06-10T10:02:47;34.80;63.30
18103;DHT22;9178;51.120;6.192;2023-06-10T10:05:32;34.90;63.90
18103;DHT22;9178;51.120;6.192;2023-06-10T10:08:00;34.80;64.10
18103;DHT22;9178;51.120;6.192;2023-06-10T10:10:27;35.00;60.80
18103;DHT22;9178;51.120;6.192;2023-06-10T10:12:56;35.20;61.50
18103;DHT22;9178;51.120;6.192;2023-06-10T10:15:28;35.40;57.30
18103;DHT22;9178;51.120;6.192;2023-06-10T10:18:06;35.20;62.50
18103;DHT22;9178;51.120;6.192;2023-06-10T10:20:48;35.40;59.80
18103;DHT22;9178;51.120;6.192;2023-06-10T10:23:21;35.50;61.10
18103;DHT22;9178;51.120;6.192;2023-06-10T10:25:52;35.80;58.90
18103;DHT22;9178;51.120;6.192;2023-06-10T10:28:24;35.80;57.50
18103;DHT22;9178;51.120;6.192;2023-06-10T10:30:58;35.20;60.10
18103;DHT22;9178;51.120;6.192;2023-06-10T10:33:36;35.70;59.90
18103;DHT22;9178;51.120;6.192;2023-06-10T10:36:08;36.20;55.10
18103;DHT22;9178;51.120;6.192;2023-06-10T10:38:36;36.20;54.20
18103;DHT22;9178;51.120;6.192;2023-06-10T10:41:04;36.20;57.20
18103;DHT22;9178;51.120;6.192;2023-06-10T10:43:35;36.30;54.40
18103;DHT22;9178;51.120;6.192;2023-06-10T10:46:13;35.90;51.50
18103;DHT22;9178;51.120;6.192;2023-06-10T10:48:44;35.60;55.30
18103;DHT22;9178;51.120;6.192;2023-06-10T10:51:12;35.70;52.90
18103;DHT22;9178;51.120;6.192;2023-06-10T10:53:42;35.70;55.50
18103;DHT22;9178;51.120;6.192;2023-06-10T10:56:14;36.10;55.00
18103;DHT22;9178;51.120;6.192;2023-06-10T10:59:02;36.40;53.90
18103;DHT22;9178;51.120;6.192;2023-06-10T11:01:43;37.00;53.60
18103;DHT22;9178;51.120;6.192;2023-06-10T11:04:12;36.90;50.80
18103;DHT22;9178;51.120;6.192;2023-06-10T11:06:52;36.30;52.30
18103;DHT22;9178;51.120;6.192;2023-06-10T11:09:27;36.20;49.50
18103;DHT22;9178;51.120;6.192;2023-06-10T11:11:57;36.50;52.10
18103;DHT22;9178;51.120;6.192;2023-06-10T11:14:30;37.00;52.90
18103;DHT22;9178;51.120;6.192;2023-06-10T11:17:18;37.50;52.90
18103;DHT22;9178;51.120;6.192;2023-06-10T11:19:49;37.80;49.30
18103;DHT22;9178;51.120;6.192;2023-06-10T11:22:17;37.90;49.90
18103;DHT22;9178;51.120;6.192;2023-06-10T11:24:47;38.20;48.20
18103;DHT22;9178;51.120;6.192;2023-06-10T11:27:18;38.40;48.00
18103;DHT22;9178;51.120;6.192;2023-06-10T11:29:58;38.40;46.30
18103;DHT22;9178;51.120;6.192;2023-06-10T11:32:32;38.20;47.10
18103;DHT22;9178;51.120;6.192;2023-06-10T11:34:59;37.80;50.20
18103;DHT22;9178;51.120;6.192;2023-06-10T11:37:27;37.80;48.90
18103;DHT22;9178;51.120;6.192;2023-06-10T11:39:55;38.30;48.50
18103;DHT22;9178;51.120;6.192;2023-06-10T11:42:23;38.80;47.20
18103;DHT22;9178;51.120;6.192;2023-06-10T11:44:52;39.00;46.60
18103;DHT22;9178;51.120;6.192;2023-06-10T11:47:21;39.10;44.80
18103;DHT22;9178;51.120;6.192;2023-06-10T11:49:56;38.60;44.00
18103;DHT22;9178;51.120;6.192;2023-06-10T11:52:30;37.60;44.20
18103;DHT22;9178;51.120;6.192;2023-06-10T11:55:04;37.00;47.10
18103;DHT22;9178;51.120;6.192;2023-06-10T11:57:34;37.00;46.70
18103;DHT22;9178;51.120;6.192;2023-06-10T12:00:04;36.90;46.90
18103;DHT22;9178;51.120;6.192;2023-06-10T12:02:34;36.70;46.40
18103;DHT22;9178;51.120;6.192;2023-06-10T12:05:11;36.60;47.50
18103;DHT22;9178;51.120;6.192;2023-06-10T12:07:38;37.10;43.70
18103;DHT22;9178;51.120;6.192;2023-06-10T12:10:09;37.20;49.00
18103;DHT22;9178;51.120;6.192;2023-06-10T12:12:38;37.50;43.10
18103;DHT22;9178;51.120;6.192;2023-06-10T12:15:07;37.40;44.30
18103;DHT22;9178;51.120;6.192;2023-06-10T12:17:38;37.70;43.00
18103;DHT22;9178;51.120;6.192;2023-06-10T12:20:06;37.90;45.50
18103;DHT22;9178;51.120;6.192;2023-06-10T12:22:39;37.90;43.50
18103;DHT22;9178;51.120;6.192;2023-06-10T12:25:07;38.30;43.50
18103;DHT22;9178;51.120;6.192;2023-06-10T12:27:36;38.10;43.40
18103;DHT22;9178;51.120;6.192;2023-06-10T12:30:05;37.50;44.60
18103;DHT22;9178;51.120;6.192;2023-06-10T12:32:45;37.70;45.40
18103;DHT22;9178;51.120;6.192;2023-06-10T12:35:16;37.10;43.90
18103;DHT22;9178;51.120;6.192;2023-06-10T12:37:54;35.80;44.70
18103;DHT22;9178;51.120;6.192;2023-06-10T12:40:26;35.40;46.70
18103;DHT22;9178;51.120;6.192;2023-06-10T12:42:53;34.80;46.10
18103;DHT22;9178;51.120;6.192;2023-06-10T12:45:26;34.40;47.80
18103;DHT22;9178;51.120;6.192;2023-06-10T12:48:06;34.00;48.30
18103;DHT22;9178;51.120;6.192;2023-06-10T12:50:49;33.70;48.30
18103;DHT22;9178;51.120;6.192;2023-06-10T12:53:17;33.20;49.60
18103;DHT22;9178;51.120;6.192;2023-06-10T12:55:45;33.00;49.80
18103;DHT22;9178;51.120;6.192;2023-06-10T12:58:12;32.50;50.20
18103;DHT22;9178;51.120;6.192;2023-06-10T13:00:40;32.60;54.50
18103;DHT22;9178;51.120;6.192;2023-06-10T13:03:10;33.10;53.10
18103;DHT22;9178;51.120;6.192;2023-06-10T13:05:38;33.90;53.00
18103;DHT22;9178;51.120;6.192;2023-06-10T13:08:06;34.50;49.40
18103;DHT22;9178;51.120;6.192;2023-06-10T13:10:38;34.90;49.40
18103;DHT22;9178;51.120;6.192;2023-06-10T13:13:06;35.10;50.70
18103;DHT22;9178;51.120;6.192;2023-06-10T13:15:38;35.70;48.40
18103;DHT22;9178;51.120;6.192;2023-06-10T13:18:05;35.90;45.10
18103;DHT22;9178;51.120;6.192;2023-06-10T13:20:36;35.90;47.30
18103;DHT22;9178;51.120;6.192;2023-06-10T13:23:08;35.60;45.80
18103;DHT22;9178;51.120;6.192;2023-06-10T13:25:35;35.30;49.20
18103;DHT22;9178;51.120;6.192;2023-06-10T13:28:03;35.50;47.80
18103;DHT22;9178;51.120;6.192;2023-06-10T13:30:30;35.70;47.10
18103;DHT22;9178;51.120;6.192;2023-06-10T13:32:58;36.20;48.80
18103;DHT22;9178;51.120;6.192;2023-06-10T13:35:28;36.70;45.60
18103;DHT22;9178;51.120;6.192;2023-06-10T13:37:59;37.10;49.40
18103;DHT22;9178;51.120;6.192;2023-06-10T13:40:26;37.60;43.80
18103;DHT22;9178;51.120;6.192;2023-06-10T13:42:53;37.20;45.20
18103;DHT22;9178;51.120;6.192;2023-06-10T13:45:21;36.90;45.00
18103;DHT22;9178;51.120;6.192;2023-06-10T13:47:51;37.30;46.30
18103;DHT22;9178;51.120;6.192;2023-06-10T13:50:18;37.70;46.40
18103;DHT22;9178;51.120;6.192;2023-06-10T13:52:45;38.10;44.90
18103;DHT22;9178;51.120;6.192;2023-06-10T13:55:14;37.90;45.80
18103;DHT22;9178;51.120;6.192;2023-06-10T13:57:42;37.30;47.10
18103;DHT22;9178;51.120;6.192;2023-06-10T14:00:09;37.00;47.40
18103;DHT22;9178;51.120;6.192;2023-06-10T14:02:37;36.50;46.70
18103;DHT22;9178;51.120;6.192;2023-06-10T14:05:08;36.00;47.10
18103;DHT22;9178;51.120;6.192;2023-06-10T14:07:35;35.50;48.00
18103;DHT22;9178;51.120;6.192;2023-06-10T14:10:04;35.20;49.40
18103;DHT22;9178;51.120;6.192;2023-06-10T14:12:33;34.90;50.40
18103;DHT22;9178;51.120;6.192;2023-06-10T14:15:00;34.60;50.50
18103;DHT22;9178;51.120;6.192;2023-06-10T14:17:31;34.40;50.50
18103;DHT22;9178;51.120;6.192;2023-06-10T14:19:58;34.20;50.30
18103;DHT22;9178;51.120;6.192;2023-06-10T14:22:25;33.90;50.50
18103;DHT22;9178;51.120;6.192;2023-06-10T14:24:52;33.70;52.40
18103;DHT22;9178;51.120;6.192;2023-06-10T14:27:21;33.70;52.20
18103;DHT22;9178;51.120;6.192;2023-06-10T14:29:50;33.60;51.30
18103;DHT22;9178;51.120;6.192;2023-06-10T14:32:18;33.40;51.80
18103;DHT22;9178;51.120;6.192;2023-06-10T14:34:46;33.20;53.70
18103;DHT22;9178;51.120;6.192;2023-06-10T14:37:13;33.00;52.10
18103;DHT22;9178;51.120;6.192;2023-06-10T14:39:43;32.90;53.40
18103;DHT22;9178;51.120;6.192;2023-06-10T14:42:10;32.90;53.70
18103;DHT22;9178;51.120;6.192;2023-06-10T14:44:40;32.90;54.60
18103;DHT22;9178;51.120;6.192;2023-06-10T14:47:08;33.00;54.30
18103;DHT22;9178;51.120;6.192;2023-06-10T14:49:37;33.00;55.20
18103;DHT22;9178;51.120;6.192;2023-06-10T14:52:04;33.00;56.50
18103;DHT22;9178;51.120;6.192;2023-06-10T14:54:34;33.00;57.80
18103;DHT22;9178;51.120;6.192;2023-06-10T14:57:01;33.00;57.30
18103;DHT22;9178;51.120;6.192;2023-06-10T14:59:29;33.10;55.40
18103;DHT22;9178;51.120;6.192;2023-06-10T15:01:56;33.50;54.60
18103;DHT22;9178;51.120;6.192;2023-06-10T15:04:27;33.90;54.30
18103;DHT22;9178;51.120;6.192;2023-06-10T15:06:57;34.40;54.20
18103;DHT22;9178;51.120;6.192;2023-06-10T15:09:24;34.50;53.40
18103;DHT22;9178;51.120;6.192;2023-06-10T15:11:51;34.60;50.90
18103;DHT22;9178;51.120;6.192;2023-06-10T15:14:18;34.60;52.10
18103;DHT22;9178;51.120;6.192;2023-06-10T15:16:46;34.80;51.00
18103;DHT22;9178;51.120;6.192;2023-06-10T15:19:15;35.10;51.50
18103;DHT22;9178;51.120;6.192;2023-06-10T15:21:50;35.30;50.20
18103;DHT22;9178;51.120;6.192;2023-06-10T15:24:17;35.20;49.80
18103;DHT22;9178;51.120;6.192;2023-06-10T15:26:48;35.10;50.00
18103;DHT22;9178;51.120;6.192;2023-06-10T15:29:19;35.20;49.90
18103;DHT22;9178;51.120;6.192;2023-06-10T15:31:48;35.30;49.50
18103;DHT22;9178;51.120;6.192;2023-06-10T15:34:15;35.40;49.40
18103;DHT22;9178;51.120;6.192;2023-06-10T15:36:43;35.50;49.10
18103;DHT22;9178;51.120;6.192;2023-06-10T15:39:11;35.50;49.50
18103;DHT22;9178;51.120;6.192;2023-06-10T15:41:46;35.40;48.60
18103;DHT22;9178;51.120;6.192;2023-06-10T15:44:14;35.40;48.60
18103;DHT22;9178;51.120;6.192;2023-06-10T15:46:41;35.30;47.90
18103;DHT22;9178;51.120;6.192;2023-06-10T15:49:13;35.20;49.60
18103;DHT22;9178;51.120;6.192;2023-06-10T15:51:41;35.20;47.40
18103;DHT22;9178;51.120;6.192;2023-06-10T15:54:08;35.00;48.90
18103;DHT22;9178;51.120;6.192;2023-06-10T15:56:48;35.00;49.90
18103;DHT22;9178;51.120;6.192;2023-06-10T15:59:15;35.00;50.40
18103;DHT22;9178;51.120;6.192;2023-06-10T16:01:48;35.00;48.40
18103;DHT22;9178;51.120;6.192;2023-06-10T16:04:16;35.10;49.70
18103;DHT22;9178;51.120;6.192;2023-06-10T16:06:46;35.30;49.50
18103;DHT22;9178;51.120;6.192;2023-06-10T16:09:24;35.40;48.90
18103;DHT22;9178;51.120;6.192;2023-06-10T16:11:52;35.20;48.90
18103;DHT22;9178;51.120;6.192;2023-06-10T16:14:23;34.90;49.60